Glencoe, Kentucky
Current Conditions -  °F | °C
As of 4:52 AM on Wednesday 26 Nov 2014 (Local Time) from KCVG Reporting Station
Haze Haze  
Wind Chill: 20°   Ceiling: Unl
Heat Index: 27°   Visibility: 6mi
Dew Point: 22°   Wind: 6mph
Humidity: 81%   Direction: 20°NNE
Pressure: 30.09"   Gusts: NA
Location:  38.71°N, 84.82°W
Report Text: KCVG 260952Z 02005KT 6SM HZ FEW011 M03/M06 A3009 RMK AO2 SLP194 T10281056
Loading
Personal Weather Stations






























Interactive Weather Map New forecast layout! Learn more

10-Day Weather Forecast

Advertisements
Track Severe Weather on mobile